Terminal Aerodrome Forecast
Issued by NWS

Home | Current Version | Previous Version | Graphics & Text | Print | Product List | Glossary On
Versions: 1 2 3 4 5 6 7 8 9 10 11 12 13 14 15 16 17 18 19 20 21 22 23 24 25 26 27 28 29
000
FTUS43 KLOT 161131
TAFDPA
TAF
KDPA 161131Z 1612/1712 07003KT P6SM SCT050 BKN250
     FM161300 11006KT P6SM SCT050 BKN250
     FM161900 14009KT P6SM BKN050 BKN250
     FM170000 13008KT P6SM VCSH BKN040
     FM170400 17008KT P6SM VCTS SCT030 BKN100CB PROB30 1706/1712 2SM
      TSRA BKN030CB=

USA.gov is the U.S. government's official web portal to all federal, state and local government web resources and services.